Time;durP1;ratioP1;P1;durP2;ratioP2;P2;SDS_P1;SDS_P2;PMS_P1;PMS_P2;Temp;Humidity;BMP_temperature;BMP_pressure;BME280_temperature;BME280_humidity;BME280_pressure;Samples;Min_cycle;Max_cycle;Signal;HPM_P1;HPM_P2
2021/09/08 00:02:24;;;;;;;11.60;8.32;;;;;;;19.46;59.62;97565.69;4895406;29;20517;-80
2021/09/08 00:04:50;;;;;;;9.60;7.28;;;;;;;19.51;59.02;97567.47;4916755;29;20066;-80
2021/09/08 00:07:15;;;;;;;11.18;8.25;;;;;;;19.43;59.14;97567.06;4916897;29;20124;-80
2021/09/08 00:09:41;;;;;;;10.15;7.72;;;;;;;19.41;59.46;97568.41;4916947;29;20059;-80
2021/09/08 00:12:07;;;;;;;9.23;7.72;;;;;;;19.36;59.51;97565.88;4901570;29;20039;-80
2021/09/08 00:14:34;;;;;;;10.27;8.13;;;;;;;19.31;59.86;97560.69;4933033;29;20038;-80
2021/09/08 00:16:59;;;;;;;12.15;8.50;;;;;;;19.28;59.87;97560.19;4916763;29;20032;-80
2021/09/08 00:19:24;;;;;;;10.63;8.38;;;;;;;19.25;60.14;97554.72;4901399;29;20028;-80
2021/09/08 00:21:50;;;;;;;11.18;9.23;;;;;;;19.24;60.32;97550.50;4901173;29;20031;-80
2021/09/08 00:24:15;;;;;;;9.93;8.50;;;;;;;19.22;60.50;97545.50;4910136;29;20465;-80
2021/09/08 00:26:41;;;;;;;11.13;8.63;;;;;;;19.24;60.46;97559.22;4901046;29;20046;-80
2021/09/08 00:29:06;;;;;;;10.05;8.77;;;;;;;19.19;60.79;97548.75;4916661;29;20063;-80
2021/09/08 00:31:34;;;;;;;13.70;8.82;;;;;;;19.07;60.91;97551.06;4901502;29;20042;-80
2021/09/08 00:34:00;;;;;;;9.93;8.77;;;;;;;19.15;60.76;97555.66;4913882;29;20047;-81
2021/09/08 00:36:25;;;;;;;11.88;9.10;;;;;;;19.08;60.63;97547.34;4932661;29;20391;-81
2021/09/08 00:38:51;;;;;;;15.02;9.13;;;;;;;19.06;60.71;97542.34;4912847;29;20046;-81
2021/09/08 00:41:18;;;;;;;11.52;9.00;;;;;;;19.06;60.95;97537.09;4932220;29;20036;-81
2021/09/08 00:43:44;;;;;;;12.88;9.77;;;;;;;19.04;61.02;97533.19;4932510;29;20496;-81
2021/09/08 00:46:09;;;;;;;11.85;9.20;;;;;;;19.05;60.78;97529.44;4916667;29;20070;-81
2021/09/08 00:48:35;;;;;;;11.45;8.73;;;;;;;19.04;60.83;97533.19;4932152;29;20139;-81
2021/09/08 00:51:00;;;;;;;12.50;9.82;;;;;;;19.00;60.85;97525.03;4931738;29;20071;-81
2021/09/08 00:53:25;;;;;;;13.00;9.23;;;;;;;18.99;60.68;97523.50;4901135;29;20032;-81
2021/09/08 00:55:51;;;;;;;11.52;9.45;;;;;;;18.98;61.07;97537.75;4932908;29;20035;-80
2021/09/08 00:58:16;;;;;;;11.82;9.13;;;;;;;18.93;61.30;97527.28;4917053;29;20040;-81
2021/09/08 01:00:42;;;;;;;13.18;9.43;;;;;;;18.86;61.65;97525.00;4928187;23;22212;-78
2021/09/08 01:03:09;;;;;;;12.10;9.25;;;;;;;18.81;61.91;97530.34;4954383;28;20127;-78
2021/09/08 01:05:34;;;;;;;12.45;9.70;;;;;;;18.80;61.67;97525.34;4940875;28;20070;-78
2021/09/08 01:08:00;;;;;;;12.43;9.68;;;;;;;18.77;61.62;97521.44;4973278;28;20492;-78
2021/09/08 01:10:26;;;;;;;9.90;8.75;;;;;;;18.69;61.60;97519.47;4974450;28;20069;-78
2021/09/08 01:12:52;;;;;;;10.30;8.55;;;;;;;18.70;61.81;97516.53;4973358;28;20093;-78
2021/09/08 01:15:17;;;;;;;10.13;8.73;;;;;;;18.69;61.86;97514.97;4941709;28;20038;-78
2021/09/08 01:17:43;;;;;;;11.07;8.95;;;;;;;18.74;61.79;97513.31;4940809;28;20062;-78
2021/09/08 01:20:09;;;;;;;11.98;8.68;;;;;;;18.78;61.94;97509.84;4972941;28;20026;-78
2021/09/08 01:22:50;;;;;;;10.20;8.13;;;;;;;18.57;62.15;97506.72;4972691;28;20027;-78
2021/09/08 01:25:18;;;;;;;9.48;8.48;;;;;;;18.77;61.73;97510.91;4985663;28;20027;-78
2021/09/08 01:27:43;;;;;;;9.27;8.10;;;;;;;18.80;61.68;97512.16;4938133;29;20038;-78
2021/09/08 01:30:09;;;;;;;9.65;8.20;;;;;;;18.85;61.68;97501.53;4937583;29;20035;-78
2021/09/08 01:32:35;;;;;;;9.65;8.20;;;;;;;18.93;61.63;97497.47;4953467;29;20822;-78
2021/09/08 01:35:00;;;;;;;10.45;8.88;;;;;;;19.01;61.05;97505.50;4921785;29;20121;-77
2021/09/08 01:37:26;;;;;;;10.18;8.63;;;;;;;19.07;60.74;97500.91;4953819;29;20110;-78
2021/09/08 01:39:52;;;;;;;8.88;7.93;;;;;;;19.08;60.63;97490.06;4921473;29;20108;-78
2021/09/08 01:42:22;;;;;;;9.63;8.32;;;;;;;19.14;60.41;97492.59;4947461;28;20038;-78
2021/09/08 01:44:48;;;;;;;8.57;7.53;;;;;;;19.20;60.02;97500.16;4976019;28;20128;-77
2021/09/08 01:47:14;;;;;;;9.13;8.13;;;;;;;19.15;60.34;97492.31;4991161;28;20069;-78
2021/09/08 01:49:39;;;;;;;10.30;7.75;;;;;;;19.15;60.13;97492.31;4993284;28;20351;-78
2021/09/08 01:52:04;;;;;;;9.52;8.05;;;;;;;19.14;59.97;97485.50;4961266;28;20031;-78
2021/09/08 01:54:30;;;;;;;10.35;8.10;;;;;;;19.07;60.20;97485.88;4972455;28;20030;-78
2021/09/08 01:56:56;;;;;;;9.98;7.85;;;;;;;18.99;60.37;97483.13;4972224;28;20115;-78
2021/09/08 01:59:21;;;;;;;8.48;6.97;;;;;;;18.91;60.45;97476.66;4972527;28;20501;-78
2021/09/08 02:01:46;;;;;;;10.13;8.18;;;;;;;18.86;60.69;97468.81;4939134;28;20049;-78
2021/09/08 02:04:12;;;;;;;10.35;7.85;;;;;;;18.83;61.07;97478.13;4972213;28;20430;-78
2021/09/08 02:06:47;;;;;;;11.85;8.60;;;;;;;18.58;61.12;97481.94;4972144;28;20114;-78
2021/09/08 02:09:13;;;;;;;9.95;7.78;;;;;;;18.75;61.11;97470.84;4971038;28;20043;-78
2021/09/08 02:11:39;;;;;;;9.95;8.40;;;;;;;18.70;61.28;97471.69;4954500;28;20042;-78
2021/09/08 02:14:04;;;;;;;9.05;8.15;;;;;;;18.70;61.19;97471.69;4951798;28;20035;-78
2021/09/08 02:16:30;;;;;;;9.45;8.45;;;;;;;18.67;61.55;97471.50;4951426;29;20034;-78
2021/09/08 02:18:55;;;;;;;10.27;8.82;;;;;;;18.65;61.49;97469.16;4950255;28;20042;-78
2021/09/08 02:21:21;;;;;;;11.52;8.60;;;;;;;18.67;61.77;97472.28;4970125;28;20042;-77
2021/09/08 02:23:47;;;;;;;11.38;8.77;;;;;;;18.61;61.65;97473.44;4976811;28;20050;-77
2021/09/08 02:26:12;;;;;;;11.30;9.32;;;;;;;18.65;61.66;97468.38;4989794;28;20022;-78
2021/09/08 02:28:38;;;;;;;11.68;9.02;;;;;;;18.55;61.83;97474.59;4957637;28;20046;-78
2021/09/08 02:31:04;;;;;;;11.85;8.57;;;;;;;18.41;61.90;97471.13;4973295;28;20453;-77
2021/09/08 02:33:30;;;;;;;11.00;8.85;;;;;;;18.36;62.25;97471.22;4989839;28;20555;-78
2021/09/08 02:35:56;;;;;;;11.85;8.80;;;;;;;18.23;62.50;97462.97;4974234;28;20117;-78
2021/09/08 02:38:21;;;;;;;12.48;8.65;;;;;;;18.12;62.34;97467.59;4988271;28;20041;-78
2021/09/08 02:40:47;;;;;;;10.93;8.68;;;;;;;18.02;63.06;97464.31;4985901;28;20043;-78
2021/09/08 02:43:12;;;;;;;11.23;9.55;;;;;;;18.06;63.22;97468.75;4970230;28;20049;-77
2021/09/08 02:45:37;;;;;;;11.05;9.55;;;;;;;18.05;62.77;97461.91;4954167;28;20537;-78
2021/09/08 02:48:03;;;;;;;10.75;9.15;;;;;;;18.08;62.85;97466.59;4970289;28;20400;-77
2021/09/08 02:50:28;;;;;;;11.65;9.02;;;;;;;18.08;63.25;97457.91;4985998;28;20034;-79
2021/09/08 02:52:54;;;;;;;12.05;9.88;;;;;;;18.10;63.12;97463.69;4971861;28;20401;-78
2021/09/08 02:55:19;;;;;;;12.45;9.40;;;;;;;18.13;63.31;97468.38;4970357;28;20046;-78
2021/09/08 02:57:47;;;;;;;10.70;9.02;;;;;;;18.03;63.30;97461.41;4967114;28;20127;-77
2021/09/08 03:00:13;;;;;;;12.32;9.23;;;;;;;18.10;63.29;97461.03;4971420;28;20281;-78
2021/09/08 03:02:38;;;;;;;10.80;9.13;;;;;;;18.06;63.42;97458.19;4953920;28;20089;-77
2021/09/08 03:05:04;;;;;;;11.98;9.38;;;;;;;18.05;63.56;97459.25;4970075;28;20425;-77
2021/09/08 03:07:29;;;;;;;12.98;9.70;;;;;;;17.98;63.89;97452.78;4970038;28;20034;-77
2021/09/08 03:09:55;;;;;;;11.50;9.00;;;;;;;17.96;63.51;97455.72;4937778;28;20039;-77
2021/09/08 03:12:21;;;;;;;10.98;8.98;;;;;;;17.92;63.48;97452.06;4953684;28;20030;-77
2021/09/08 03:14:47;;;;;;;12.05;9.32;;;;;;;17.89;63.89;97448.16;4955363;28;20030;-78
2021/09/08 03:17:13;;;;;;;12.25;9.45;;;;;;;17.87;64.10;97444.22;4953919;28;20355;-78
2021/09/08 03:19:41;;;;;;;11.00;8.85;;;;;;;17.94;63.49;97447.28;4953895;28;20042;-78
2021/09/08 03:22:07;;;;;;;11.15;9.00;;;;;;;17.92;62.97;97449.44;4953316;28;20035;-78
2021/09/08 03:24:35;;;;;;;10.40;8.50;;;;;;;17.83;63.12;97448.47;4950314;28;20141;-78
2021/09/08 03:27:01;;;;;;;12.15;8.82;;;;;;;17.91;63.04;97447.88;4973061;28;20034;-78
2021/09/08 03:29:26;;;;;;;11.52;9.43;;;;;;;17.89;63.32;97447.34;4981345;28;20141;-78
2021/09/08 03:31:51;;;;;;;11.35;8.57;;;;;;;17.87;63.13;97449.50;4953229;28;20553;-78
2021/09/08 03:34:17;;;;;;;10.52;8.45;;;;;;;17.86;63.23;97443.47;4957415;28;20529;-78
2021/09/08 03:36:42;;;;;;;11.77;9.02;;;;;;;17.86;63.09;97442.66;4973438;28;20106;-78
2021/09/08 03:39:10;;;;;;;11.23;8.52;;;;;;;17.85;63.36;97438.44;4975045;28;20043;-78
2021/09/08 03:41:35;;;;;;;12.40;9.00;;;;;;;17.82;63.17;97433.75;4973179;28;20034;-77
2021/09/08 03:44:00;;;;;;;11.00;9.07;;;;;;;17.79;63.30;97433.25;4962156;28;20395;-78
2021/09/08 03:46:26;;;;;;;11.80;9.38;;;;;;;17.77;63.13;97435.38;4973309;28;20023;-78
2021/09/08 03:48:51;;;;;;;10.73;9.27;;;;;;;17.83;63.18;97441.34;4941513;28;20121;-78
2021/09/08 03:51:16;;;;;;;10.38;8.57;;;;;;;17.83;63.20;97440.59;4940647;28;20035;-78
2021/09/08 03:53:42;;;;;;;10.55;9.30;;;;;;;17.79;63.07;97430.59;4973055;28;20090;-78
2021/09/08 03:56:07;;;;;;;10.25;9.00;;;;;;;17.81;62.97;97432.97;4973207;28;20027;-78
2021/09/08 03:58:33;;;;;;;10.50;8.68;;;;;;;17.78;62.91;97429.03;4973330;28;20041;-78
2021/09/08 04:00:58;;;;;;;11.10;8.35;;;;;;;17.74;63.22;97425.41;4956565;28;20069;-79
2021/09/08 04:03:24;;;;;;;10.88;9.00;;;;;;;17.70;62.97;97429.69;4957141;28;20121;-78
2021/09/08 04:05:50;;;;;;;12.50;8.68;;;;;;;17.71;63.25;97430.47;4972552;28;20038;-78
2021/09/08 04:08:15;;;;;;;11.20;8.60;;;;;;;17.67;63.26;97425.00;4957241;28;20031;-78
2021/09/08 04:10:40;;;;;;;11.88;9.38;;;;;;;17.62;63.61;97426.91;4956886;28;20126;-78
2021/09/08 04:13:06;;;;;;;11.85;9.32;;;;;;;17.53;64.03;97413.56;4972529;28;20031;-78
2021/09/08 04:15:32;;;;;;;11.88;9.23;;;;;;;17.55;64.13;97427.25;4972639;28;20043;-78
2021/09/08 04:17:58;;;;;;;12.25;9.13;;;;;;;17.54;64.56;97425.69;4973019;28;20497;-78
2021/09/08 04:20:24;;;;;;;11.13;8.68;;;;;;;17.53;64.36;97424.09;4972605;28;20476;-78
2021/09/08 04:22:49;;;;;;;12.35;9.65;;;;;;;17.54;64.10;97428.31;4973367;28;20056;-78
2021/09/08 04:25:15;;;;;;;12.30;9.50;;;;;;;17.51;63.70;97421.78;4972682;28;20066;-78
2021/09/08 04:27:40;;;;;;;10.68;9.18;;;;;;;17.48;64.00;97426.81;4956685;28;20115;-78
2021/09/08 04:30:06;;;;;;;10.98;9.13;;;;;;;17.48;63.83;97426.81;4956458;28;20038;-78
2021/09/08 04:32:31;;;;;;;14.18;9.07;;;;;;;17.45;63.51;97422.13;4972871;28;20031;-78
2021/09/08 04:34:57;;;;;;;11.55;9.80;;;;;;;17.50;63.85;97424.69;4972912;28;20379;-78
2021/09/08 04:37:22;;;;;;;12.25;9.23;;;;;;;17.51;63.74;97418.34;4972631;28;20084;-78
2021/09/08 04:39:48;;;;;;;11.48;9.07;;;;;;;17.52;63.83;97431.22;4957782;28;20034;-78
2021/09/08 04:42:13;;;;;;;10.75;8.82;;;;;;;17.52;63.88;97430.44;4940309;28;20031;-78
2021/09/08 04:44:39;;;;;;;12.10;8.93;;;;;;;17.42;63.90;97434.75;4955711;28;20089;-79
2021/09/08 04:47:04;;;;;;;10.45;8.82;;;;;;;17.42;63.93;97429.50;4936985;28;20042;-78
2021/09/08 04:49:30;;;;;;;10.85;9.23;;;;;;;17.42;63.89;97434.00;4972163;28;20448;-78
2021/09/08 04:51:55;;;;;;;11.77;9.57;;;;;;;17.40;63.62;97428.22;4972108;28;20039;-78
2021/09/08 04:54:20;;;;;;;12.57;10.10;;;;;;;17.42;63.81;97432.13;4972254;28;20390;-78
2021/09/08 04:56:46;;;;;;;11.98;9.90;;;;;;;17.44;63.96;97428.44;4972732;28;20050;-78
2021/09/08 04:59:11;;;;;;;12.60;9.65;;;;;;;17.46;63.76;97434.19;4969470;28;20042;-77
2021/09/08 05:01:36;;;;;;;10.75;9.23;;;;;;;17.49;63.66;97426.53;4971810;28;20473;-78
2021/09/08 05:04:02;;;;;;;11.07;8.45;;;;;;;17.56;63.45;97424.34;4972365;28;20565;-78
2021/09/08 05:06:27;;;;;;;11.75;9.63;;;;;;;17.63;63.14;97423.19;4971230;28;20027;-78
2021/09/08 05:08:52;;;;;;;12.48;9.32;;;;;;;17.71;62.84;97418.06;4954793;28;20131;-78
2021/09/08 05:11:18;;;;;;;11.32;9.20;;;;;;;17.77;62.60;97422.22;4949329;28;20070;-78
2021/09/08 05:13:43;;;;;;;12.20;9.27;;;;;;;17.86;62.40;97421.59;4970817;28;20259;-78
2021/09/08 05:16:09;;;;;;;12.65;9.27;;;;;;;17.98;61.78;97424.59;4982701;28;20031;-77
2021/09/08 05:18:35;;;;;;;14.38;9.75;;;;;;;18.07;61.23;97422.88;4974252;28;20031;-78
2021/09/08 05:21:00;;;;;;;12.15;9.63;;;;;;;18.10;61.16;97416.25;4973749;28;20067;-78
2021/09/08 05:23:26;;;;;;;11.73;9.52;;;;;;;18.12;61.18;97414.88;4970770;28;20027;-78
2021/09/08 05:25:51;;;;;;;13.30;9.35;;;;;;;18.11;61.07;97417.81;4971159;28;20038;-78
2021/09/08 05:28:17;;;;;;;11.68;9.35;;;;;;;18.11;61.14;97417.81;4955541;28;20035;-78
2021/09/08 05:30:42;;;;;;;10.90;8.90;;;;;;;18.09;61.34;97419.94;4954392;28;20030;-78
2021/09/08 05:33:08;;;;;;;14.20;9.23;;;;;;;18.05;61.54;97418.97;4971213;28;20093;-78
2021/09/08 05:35:33;;;;;;;10.43;9.02;;;;;;;18.07;61.72;97411.53;4955416;28;20031;-78
2021/09/08 05:37:58;;;;;;;12.25;8.90;;;;;;;18.08;61.89;97413.91;4971312;28;20493;-78
2021/09/08 05:40:24;;;;;;;11.73;9.48;;;;;;;18.14;61.18;97420.63;4936677;29;20127;-78
2021/09/08 05:42:52;;;;;;;10.38;9.25;;;;;;;18.20;61.59;97415.28;4967561;28;20065;-78
2021/09/08 05:45:17;;;;;;;9.68;7.95;;;;;;;18.20;61.55;97407.38;4952378;29;20071;-78
2021/09/08 05:47:43;;;;;;;10.50;8.85;;;;;;;18.29;61.66;97410.94;4968423;28;20035;-78
2021/09/08 05:50:09;;;;;;;8.98;7.95;;;;;;;18.30;61.33;97415.13;4982398;28;20110;-78
2021/09/08 05:52:34;;;;;;;12.18;8.93;;;;;;;18.30;61.66;97412.50;4919932;29;20031;-78
2021/09/08 05:54:59;;;;;;;12.50;9.88;;;;;;;18.28;61.95;97409.38;4919400;29;20058;-78
2021/09/08 05:57:25;;;;;;;12.25;9.43;;;;;;;18.23;62.37;97410.25;4964586;28;20101;-78
2021/09/08 05:59:50;;;;;;;10.73;9.35;;;;;;;18.23;62.23;97412.88;4942223;28;20038;-78
2021/09/08 06:02:16;;;;;;;11.60;9.27;;;;;;;18.14;62.41;97412.72;4967391;28;20030;-79
2021/09/08 06:04:41;;;;;;;11.80;9.45;;;;;;;18.10;62.79;97417.03;4954492;28;20173;-79
2021/09/08 06:07:07;;;;;;;12.70;8.95;;;;;;;18.04;63.12;97418.16;4971256;28;20054;-78
2021/09/08 06:09:32;;;;;;;12.70;9.57;;;;;;;18.09;63.33;97415.44;4955138;28;20126;-78
2021/09/08 06:11:58;;;;;;;14.05;9.23;;;;;;;18.18;62.87;97417.44;4938431;28;20062;-78
2021/09/08 06:14:24;;;;;;;11.05;8.63;;;;;;;18.23;63.00;97412.09;4971059;28;20076;-78
2021/09/08 06:16:52;;;;;;;11.13;8.85;;;;;;;18.30;62.88;97409.84;4970581;28;20023;-78
2021/09/08 06:19:17;;;;;;;11.25;8.98;;;;;;;18.38;62.78;97416.34;4970939;28;20454;-78
2021/09/08 06:21:42;;;;;;;11.05;8.70;;;;;;;18.44;62.42;97407.25;4928067;28;20043;-78
2021/09/08 06:24:10;;;;;;;11.27;9.52;;;;;;;18.60;62.31;97408.56;4963509;28;20478;-78
2021/09/08 06:26:35;;;;;;;10.23;8.40;;;;;;;18.68;61.98;97407.91;4971656;28;20023;-78
2021/09/08 06:29:00;;;;;;;10.00;8.00;;;;;;;18.76;62.21;97401.16;4934941;28;20104;-78
2021/09/08 06:31:28;;;;;;;10.75;8.70;;;;;;;18.85;62.27;97401.28;4937819;29;20082;-78
2021/09/08 06:33:54;;;;;;;11.05;8.63;;;;;;;18.97;61.72;97406.91;4951732;29;20031;-78
2021/09/08 06:36:19;;;;;;;12.25;9.00;;;;;;;19.01;62.20;97401.81;4919497;29;20035;-78
2021/09/08 06:38:45;;;;;;;11.40;9.05;;;;;;;19.08;61.97;97399.56;4935032;29;20034;-78
2021/09/08 06:41:11;;;;;;;12.30;9.23;;;;;;;19.04;61.95;97404.63;4942424;28;20046;-78
2021/09/08 06:43:36;;;;;;;10.82;8.63;;;;;;;19.14;61.98;97403.66;4974873;28;20061;-78
2021/09/08 06:46:01;;;;;;;11.05;9.13;;;;;;;19.31;61.47;97407.56;4973694;28;20101;-78
2021/09/08 06:48:27;;;;;;;10.20;9.10;;;;;;;19.43;61.39;97408.63;4971032;28;20659;-78
2021/09/08 06:50:52;;;;;;;11.88;8.82;;;;;;;19.52;61.09;97395.50;4969482;28;20035;-78
2021/09/08 06:53:18;;;;;;;12.35;9.63;;;;;;;19.67;60.77;97399.66;4937894;28;20346;-78
2021/09/08 06:55:43;;;;;;;10.50;8.55;;;;;;;19.79;59.91;97399.97;4970081;28;20031;-78
2021/09/08 06:58:09;;;;;;;12.25;9.15;;;;;;;19.97;59.53;97400.09;4968092;28;20158;-78
2021/09/08 07:00:34;;;;;;;9.90;8.25;;;;;;;20.14;59.29;97405.50;4968739;28;20529;-78
2021/09/08 07:03:00;;;;;;;10.38;8.30;;;;;;;20.35;58.67;97399.72;4971451;28;20105;-78
2021/09/08 07:05:25;;;;;;;10.43;8.75;;;;;;;20.53;58.46;97398.72;4970374;28;20105;-78
2021/09/08 07:07:51;;;;;;;10.65;8.70;;;;;;;20.71;57.23;97391.69;4953593;28;20355;-78
2021/09/08 07:10:17;;;;;;;9.40;8.10;;;;;;;20.87;57.16;97401.84;4938486;29;20043;-78
2021/09/08 07:12:42;;;;;;;10.60;8.68;;;;;;;20.95;56.85;97396.59;4955311;29;20129;-78
2021/09/08 07:15:08;;;;;;;9.70;8.70;;;;;;;21.16;56.00;97403.22;4927396;28;20043;-78
2021/09/08 07:17:34;;;;;;;10.70;8.95;;;;;;;21.24;55.29;97397.16;4958504;28;20500;-78
2021/09/08 07:19:59;;;;;;;8.98;8.10;;;;;;;21.48;55.08;97394.09;4957979;28;20031;-78
2021/09/08 07:22:24;;;;;;;10.27;7.75;;;;;;;21.60;54.49;97396.16;4990835;28;20027;-78
2021/09/08 07:24:50;;;;;;;10.05;8.18;;;;;;;21.75;53.41;97385.09;4981800;28;20022;-78
2021/09/08 07:27:15;;;;;;;10.73;8.80;;;;;;;21.96;53.28;97384.47;4977247;28;20031;-79
2021/09/08 07:29:40;;;;;;;11.70;8.52;;;;;;;21.98;52.11;97385.69;4993606;28;20035;-79
2021/09/08 07:32:08;;;;;;;9.10;7.47;;;;;;;22.30;52.48;97393.50;4972760;28;20497;-79
2021/09/08 07:34:33;;;;;;;9.23;8.20;;;;;;;22.44;52.49;97375.50;4957680;28;20046;-79
2021/09/08 07:36:58;;;;;;;9.50;8.00;;;;;;;22.63;51.71;97383.09;4951918;28;20035;-78
2021/09/08 07:39:24;;;;;;;9.68;8.00;;;;;;;22.79;51.06;97384.13;4948917;28;20062;-79
2021/09/08 07:41:49;;;;;;;10.50;7.95;;;;;;;23.12;50.87;97386.19;4946802;28;20493;-79
2021/09/08 07:44:15;;;;;;;9.30;8.00;;;;;;;23.38;49.76;97383.38;4962673;28;20035;-78
2021/09/08 07:46:40;;;;;;;9.30;7.55;;;;;;;23.63;49.04;97378.19;4958723;28;20026;-79
2021/09/08 07:49:06;;;;;;;11.23;8.23;;;;;;;23.56;48.64;97370.75;4954233;29;20059;-78
2021/09/08 07:51:31;;;;;;;7.85;7.05;;;;;;;23.47;48.23;97371.91;4946157;28;20433;-78
2021/09/08 07:53:57;;;;;;;11.18;8.07;;;;;;;23.75;48.24;97372.94;4957541;28;20062;-78
2021/09/08 07:56:22;;;;;;;8.82;7.93;;;;;;;24.09;46.03;97368.44;4957197;28;20027;-78
2021/09/08 07:58:48;;;;;;;8.65;7.72;;;;;;;24.23;47.04;97367.34;4973130;28;20551;-78
2021/09/08 08:01:13;;;;;;;10.18;7.78;;;;;;;24.42;46.39;97370.28;4956545;28;20043;-78
2021/09/08 08:03:39;;;;;;;7.95;7.15;;;;;;;24.73;45.82;97366.38;4973138;28;20062;-78
2021/09/08 08:06:04;;;;;;;8.82;7.20;;;;;;;24.63;45.55;97364.91;4973089;28;20026;-78
2021/09/08 08:08:30;;;;;;;8.20;7.40;;;;;;;24.92;45.39;97360.47;4989379;28;20061;-79
2021/09/08 08:10:56;;;;;;;9.38;7.18;;;;;;;24.91;45.29;97360.81;4985496;28;20066;-78
2021/09/08 08:13:21;;;;;;;9.38;7.57;;;;;;;24.46;45.19;97363.19;4973277;28;20378;-79
2021/09/08 08:15:47;;;;;;;9.93;7.57;;;;;;;24.69;44.64;97354.81;4972157;28;20031;-79
2021/09/08 08:18:13;;;;;;;8.40;7.50;;;;;;;24.94;45.00;97352.94;4955574;28;20058;-78
2021/09/08 08:20:39;;;;;;;8.20;7.40;;;;;;;25.05;44.38;97358.56;4953671;28;20031;-78
2021/09/08 08:23:04;;;;;;;8.30;7.45;;;;;;;25.10;43.36;97346.91;4940327;28;20030;-78
2021/09/08 08:25:31;;;;;;;8.73;7.82;;;;;;;24.95;42.97;97357.16;4940568;28;20129;-77
2021/09/08 08:27:58;;;;;;;8.07;7.03;;;;;;;25.44;42.50;97358.97;4956980;28;20042;-78
2021/09/08 08:30:24;;;;;;;9.65;6.95;;;;;;;25.46;42.91;97351.41;4957045;28;20517;-78
2021/09/08 08:32:50;;;;;;;9.07;8.15;;;;;;;25.56;41.90;97361.59;4956382;28;20023;-77
2021/09/08 08:35:16;;;;;;;8.05;6.85;;;;;;;25.02;41.47;97348.59;4941299;28;20031;-77
2021/09/08 08:37:42;;;;;;;8.98;8.07;;;;;;;25.23;41.45;97354.56;4956488;28;20034;-76
2021/09/08 08:40:09;;;;;;;7.72;7.03;;;;;;;25.69;40.66;97353.59;4978611;28;20040;-77
2021/09/08 08:42:35;;;;;;;7.32;6.63;;;;;;;25.71;40.34;97351.34;4972474;28;20520;-77
2021/09/08 08:45:00;;;;;;;8.15;7.28;;;;;;;25.68;40.52;97346.69;4940469;28;20117;-77
2021/09/08 08:47:26;;;;;;;7.97;6.72;;;;;;;25.86;41.72;97353.28;4956964;28;20374;-78
2021/09/08 08:49:54;;;;;;;7.70;6.88;;;;;;;26.39;41.10;97349.69;4955553;28;20560;-78
2021/09/08 08:52:22;;;;;;;8.05;7.30;;;;;;;26.34;38.96;97346.16;4941477;28;20477;-77
2021/09/08 08:54:51;;;;;;;7.57;6.82;;;;;;;26.47;39.97;97351.41;4956520;28;20063;-79
2021/09/08 08:57:18;;;;;;;8.63;7.18;;;;;;;26.33;39.21;97343.84;4940178;28;20023;-79
2021/09/08 08:59:47;;;;;;;7.65;6.95;;;;;;;26.68;39.74;97338.63;4939094;29;20632;-79
2021/09/08 09:02:24;;;;;;;7.63;6.85;;;;;;;26.73;39.29;97340.22;4958171;28;20481;-78
2021/09/08 09:04:52;;;;;;;8.38;7.50;;;;;;;26.48;38.51;97344.97;4955716;28;20097;-79
2021/09/08 09:07:42;;;;;;;7.82;7.00;;;;;;;26.82;39.12;97345.38;4964470;28;20369;-78
2021/09/08 09:10:11;;;;;;;7.25;6.00;;;;;;;27.28;37.35;97340.31;4939704;28;20049;-78
2021/09/08 09:12:38;;;;;;;7.20;6.50;;;;;;;27.50;38.24;97341.53;4955800;28;20027;-79
2021/09/08 09:15:06;;;;;;;6.95;6.25;;;;;;;27.61;37.89;97333.75;4957754;28;20035;-79
2021/09/08 09:17:34;;;;;;;7.68;6.18;;;;;;;27.06;37.26;97339.09;4955843;28;20030;-79
2021/09/08 09:20:08;;;;;;;7.15;6.40;;;;;;;27.14;37.44;97332.75;4964065;28;20049;-78
2021/09/08 09:22:55;;;;;;;8.02;7.20;;;;;;;27.38;36.74;97334.41;4955525;28;20018;-77
2021/09/08 09:25:23;;;;;;;7.10;6.40;;;;;;;27.36;37.11;97328.66;4955685;28;20030;-78
2021/09/08 09:27:53;;;;;;;7.43;6.55;;;;;;;27.32;37.30;97327.06;4939646;28;20041;-78
2021/09/08 09:30:27;;;;;;;7.20;6.47;;;;;;;27.36;37.53;97322.53;4955385;28;20322;-78
2021/09/08 09:32:54;;;;;;;9.27;7.20;;;;;;;27.27;37.14;97322.72;4987961;28;20037;-79
2021/09/08 09:35:31;;;;;;;7.35;6.68;;;;;;;27.50;35.28;97316.69;4955430;28;20043;-78
2021/09/08 09:38:07;;;;;;;6.60;6.00;;;;;;;27.72;36.10;97313.31;4955702;28;20038;-79
2021/09/08 09:40:34;;;;;;;7.20;6.50;;;;;;;27.76;36.04;97314.16;4955426;28;20034;-78
2021/09/08 09:43:04;;;;;;;7.65;6.55;;;;;;;28.20;35.14;97313.78;4971452;28;20340;-79
2021/09/08 09:45:38;;;;;;;6.88;6.25;;;;;;;27.89;34.99;97311.31;4971417;28;20477;-79
2021/09/08 09:48:04;;;;;;;7.82;7.03;;;;;;;27.80;35.61;97322.25;4956463;28;20043;-78
2021/09/08 09:50:31;;;;;;;7.63;6.72;;;;;;;27.54;35.31;97306.84;4954835;28;20027;-78
2021/09/08 09:52:56;;;;;;;6.70;6.00;;;;;;;27.96;34.96;97312.22;4952150;29;20383;-78
2021/09/08 09:55:24;;;;;;;6.35;5.75;;;;;;;28.21;33.58;97303.88;4951958;29;20031;-78
2021/09/08 09:57:50;;;;;;;6.32;5.72;;;;;;;28.47;34.22;97307.72;4951537;29;20063;-78
2021/09/08 10:00:17;;;;;;;7.13;5.63;;;;;;;28.70;35.81;97313.06;4919905;28;20103;-79
2021/09/08 10:02:43;;;;;;;6.63;6.03;;;;;;;29.22;33.53;97306.16;4919672;29;20501;-78
2021/09/08 10:05:09;;;;;;;6.82;6.22;;;;;;;29.31;34.05;97298.59;4939275;28;20101;-78
2021/09/08 10:07:35;;;;;;;6.38;5.85;;;;;;;29.54;33.51;97292.34;4954726;28;20034;-79
2021/09/08 10:10:04;;;;;;;7.00;6.15;;;;;;;29.55;32.96;97296.56;4954473;28;20103;-78
2021/09/08 10:12:34;;;;;;;6.38;5.78;;;;;;;29.60;31.66;97290.88;4938931;28;20074;-78
2021/09/08 10:15:01;;;;;;;6.97;6.07;;;;;;;29.61;34.17;97292.44;4955124;28;20112;-78
2021/09/08 10:17:33;;;;;;;6.82;5.70;;;;;;;29.21;32.08;97282.38;4942461;28;20018;-78
2021/09/08 10:20:04;;;;;;;5.95;5.30;;;;;;;29.16;33.09;97280.78;4989711;28;20034;-78
2021/09/08 10:22:30;;;;;;;7.65;6.07;;;;;;;29.61;31.71;97276.34;4938883;28;20038;-78
2021/09/08 10:24:55;;;;;;;6.70;6.10;;;;;;;29.82;30.51;97269.66;4971643;28;20031;-79
2021/09/08 10:27:23;;;;;;;7.82;6.28;;;;;;;29.65;31.27;97265.63;4938355;28;20022;-79
2021/09/08 10:29:51;;;;;;;6.00;5.50;;;;;;;29.48;30.23;97264.31;4970578;28;20404;-79
2021/09/08 10:32:17;;;;;;;6.47;5.95;;;;;;;29.68;29.84;97259.50;4954480;28;20038;-79
2021/09/08 10:34:43;;;;;;;5.78;5.35;;;;;;;28.91;30.66;97256.34;4971350;28;20034;-79
2021/09/08 10:37:10;;;;;;;5.88;5.32;;;;;;;28.47;30.42;97254.94;4954333;28;20065;-79
2021/09/08 10:39:36;;;;;;;6.20;5.60;;;;;;;28.57;30.69;97248.22;4955633;28;20049;-79
2021/09/08 10:42:01;;;;;;;6.10;5.60;;;;;;;28.61;30.15;97251.69;4969723;28;20486;-78
2021/09/08 10:44:53;;;;;;;7.00;5.65;;;;;;;28.74;30.82;97249.59;4954151;28;20470;-78
2021/09/08 10:47:36;;;;;;;5.63;5.13;;;;;;;29.40;29.97;97246.59;4950885;28;20041;-78
2021/09/08 10:50:01;;;;;;;6.47;5.60;;;;;;;29.81;30.71;97239.34;4953989;28;20421;-78
2021/09/08 10:52:36;;;;;;;6.18;5.57;;;;;;;29.76;30.16;97238.91;4970619;28;20023;-79
2021/09/08 10:55:02;;;;;;;6.50;5.90;;;;;;;29.96;28.95;97242.19;4986315;28;20035;-78
2021/09/08 10:57:52;;;;;;;5.85;5.28;;;;;;;30.06;28.04;97239.56;4986350;28;20396;-79
2021/09/08 11:00:35;;;;;;;6.18;5.68;;;;;;;29.79;27.74;97244.31;4960361;28;20050;-80
2021/09/08 11:03:01;;;;;;;6.38;5.78;;;;;;;29.38;28.79;97238.13;4954368;28;20046;-79
2021/09/08 11:05:28;;;;;;;5.88;5.30;;;;;;;30.12;29.63;97228.47;4953982;28;20105;-79
2021/09/08 11:07:53;;;;;;;5.95;5.35;;;;;;;30.28;29.16;97223.63;4954364;28;20070;-79
2021/09/08 11:10:37;;;;;;;6.20;5.60;;;;;;;30.05;28.54;97224.59;4954013;28;20043;-79
2021/09/08 11:13:03;;;;;;;6.28;5.78;;;;;;;29.52;28.39;97230.22;4969171;28;20042;-78
2021/09/08 11:15:47;;;;;;;6.70;5.97;;;;;;;29.43;28.97;97219.78;4990083;28;20333;-78
2021/09/08 11:18:13;;;;;;;7.05;6.00;;;;;;;29.39;28.86;97223.56;4957507;28;20370;-78
2021/09/08 11:20:39;;;;;;;6.10;5.47;;;;;;;29.52;28.67;97219.50;4989660;28;20040;-78
2021/09/08 11:23:07;;;;;;;6.55;5.80;;;;;;;29.56;27.68;97222.22;4973375;28;20030;-79
2021/09/08 11:25:35;;;;;;;6.95;6.00;;;;;;;29.39;28.78;97218.22;4989745;28;20502;-78
2021/09/08 11:28:01;;;;;;;5.82;5.32;;;;;;;29.69;28.31;97220.81;4973173;28;20115;-78